Terminal Aerodrome Forecast
Issued by NWS

Current Version | Previous Version | Text Only | Print | Product List | Glossary On
Versions: 1 2 3 4 5 6 7 8 9 10 11 12
567
FTUS41 KBTV 240520
TAFMSS
TAF
KMSS 240520Z 2406/2506 VRB06KT P6SM SKC
     FM241700 28006KT P6SM SKC
     FM250200 22006KT P6SM SKC=

USA.gov is the U.S. government's official web portal to all federal, state and local government web resources and services.